This is the latest recevied weather packets stored in our database for station/object LA9UTA-13. If no packets are shown the sender has not sent any weather packets the latest 10 day(s).
| Time | Temp. | Humidity | Pressure | Rain* | Wind** | Luminosity | Snow |
|---|---|---|---|---|---|---|---|
| 1778096282 | 6.67° C | 41% | 1012.7 hPa | 0 mm | - | 2 W/m² | - |
| 1778095082 | 6.67° C | 44% | 1012.7 hPa | 0 mm | - | 5 W/m² | - |
| 1778094740 | 8.33° C | 36% | 1012.5 hPa | 0 mm | - | 11 W/m² | - |
| 1778093881 | 8.33° C | 36% | 1012.5 hPa | 0 mm | - | 11 W/m² | - |
| 1778093422 | 9.44° C | 32% | 1012.4 hPa | 0 mm | - | 22 W/m² | - |
| 1778092682 | 9.44° C | 32% | 1012.4 hPa | 0 mm | - | 22 W/m² | - |
| 1778091481 | 9.44° C | 31% | 1011.4 hPa | 0 mm | - | 35 W/m² | - |
| 1778090281 | 10° C | 30% | 1011.3 hPa | 0 mm | - | 55 W/m² | - |
| 1778089082 | 11.67° C | 26% | 1011.2 hPa | 0 mm | - | 94 W/m² | - |
| 1778087882 | 10.56° C | 27% | 1011.3 hPa | 0 mm | - | 142 W/m² | - |
| 1778086682 | 11.67° C | 27% | 1011.2 hPa | 0 mm | - | 146 W/m² | - |
| 1778085482 | 12.78° C | 27% | 1011.1 hPa | 0 mm | - | 223 W/m² | - |
| 1778084282 | 10.56° C | 30% | 1011.3 hPa | 0 mm | - | 106 W/m² | - |
| 1778083082 | 10° C | 28% | 1011.3 hPa | 0 mm | - | 96 W/m² | - |
| 1778081881 | 10.56° C | 27% | 1011.3 hPa | 0 mm | - | 348 W/m² | - |
| 1778080681 | 10.56° C | 29% | 1011.3 hPa | 0 mm | - | 109 W/m² | - |
| 1778079481 | 11.67° C | 26% | 1011.2 hPa | 0 mm | - | 416 W/m² | - |
| 1778078282 | 10° C | 25% | 1011.4 hPa | 0 mm | - | 92 W/m² | - |
| 1778077082 | 12.78° C | 22% | 1011.1 hPa | 0 mm | - | 448 W/m² | - |
| 1778075881 | 11.67° C | 23% | 1011.2 hPa | 0 mm | - | 452 W/m² | - |
| 1778074682 | 11.11° C | 24% | 1012.2 hPa | 0 mm | - | 460 W/m² | - |
| 1778073482 | 12.22° C | 26% | 1011.1 hPa | 0 mm | - | 61 W/m² | - |
| 1778072281 | 11.67° C | 27% | 1012.2 hPa | 0 mm | - | 54 W/m² | - |
| 1778071082 | 11.67° C | 28% | 1012.2 hPa | 0 mm | - | 523 W/m² | - |
| 1778069882 | 11.11° C | 29% | 1012.2 hPa | 0 mm | - | 558 W/m² | - |
* Rain latest hour (hover to see other rain measurements)
** Current wind speed in m/s (hover to see current wind gust speed)